sensor_id;sensor_type;location;lat;lon;timestamp;temperature;humidity
4002;DHT22;2015;48.670;9.060;2024-02-21T00:02:31;6.00;99.90
4002;DHT22;2015;48.670;9.060;2024-02-21T00:05:03;6.00;99.90
4002;DHT22;2015;48.670;9.060;2024-02-21T00:07:35;6.00;99.90
4002;DHT22;2015;48.670;9.060;2024-02-21T00:10:07;6.00;99.90
4002;DHT22;2015;48.670;9.060;2024-02-21T00:12:39;6.00;99.90
4002;DHT22;2015;48.670;9.060;2024-02-21T00:15:11;6.00;99.90
4002;DHT22;2015;48.670;9.060;2024-02-21T00:17:44;6.00;99.90
4002;DHT22;2015;48.670;9.060;2024-02-21T00:20:16;6.00;99.90
4002;DHT22;2015;48.670;9.060;2024-02-21T00:22:47;6.00;99.90
4002;DHT22;2015;48.670;9.060;2024-02-21T00:25:20;6.00;99.90
4002;DHT22;2015;48.670;9.060;2024-02-21T00:27:51;6.00;99.90
4002;DHT22;2015;48.670;9.060;2024-02-21T00:30:25;6.00;99.90
4002;DHT22;2015;48.670;9.060;2024-02-21T00:32:57;6.00;99.90
4002;DHT22;2015;48.670;9.060;2024-02-21T00:35:29;6.00;99.90
4002;DHT22;2015;48.670;9.060;2024-02-21T00:38:00;6.00;99.90
4002;DHT22;2015;48.670;9.060;2024-02-21T00:40:32;6.00;99.90
4002;DHT22;2015;48.670;9.060;2024-02-21T00:43:04;5.90;99.90
4002;DHT22;2015;48.670;9.060;2024-02-21T00:45:36;5.90;99.90
4002;DHT22;2015;48.670;9.060;2024-02-21T00:48:07;6.00;99.90
4002;DHT22;2015;48.670;9.060;2024-02-21T00:50:39;6.00;99.90
4002;DHT22;2015;48.670;9.060;2024-02-21T00:53:11;5.90;99.90
4002;DHT22;2015;48.670;9.060;2024-02-21T00:55:43;6.00;99.90
4002;DHT22;2015;48.670;9.060;2024-02-21T00:58:15;6.00;99.90
4002;DHT22;2015;48.670;9.060;2024-02-21T01:00:47;6.00;99.90
4002;DHT22;2015;48.670;9.060;2024-02-21T01:03:18;6.00;99.90
4002;DHT22;2015;48.670;9.060;2024-02-21T01:05:50;6.00;99.90
4002;DHT22;2015;48.670;9.060;2024-02-21T01:08:22;6.00;99.90
4002;DHT22;2015;48.670;9.060;2024-02-21T01:10:54;6.00;99.90
4002;DHT22;2015;48.670;9.060;2024-02-21T01:13:26;6.00;99.90
4002;DHT22;2015;48.670;9.060;2024-02-21T01:15:58;6.00;99.90
4002;DHT22;2015;48.670;9.060;2024-02-21T01:18:29;6.00;99.90
4002;DHT22;2015;48.670;9.060;2024-02-21T01:21:01;6.00;99.90
4002;DHT22;2015;48.670;9.060;2024-02-21T01:23:35;5.90;99.90
4002;DHT22;2015;48.670;9.060;2024-02-21T01:26:07;5.90;99.90
4002;DHT22;2015;48.670;9.060;2024-02-21T01:28:40;5.90;99.90
4002;DHT22;2015;48.670;9.060;2024-02-21T01:31:12;5.90;99.90
4002;DHT22;2015;48.670;9.060;2024-02-21T01:33:45;5.80;99.90
4002;DHT22;2015;48.670;9.060;2024-02-21T01:36:16;5.80;99.90
4002;DHT22;2015;48.670;9.060;2024-02-21T01:38:48;5.70;99.90
4002;DHT22;2015;48.670;9.060;2024-02-21T01:41:20;5.70;99.90
4002;DHT22;2015;48.670;9.060;2024-02-21T01:43:51;5.70;99.90
4002;DHT22;2015;48.670;9.060;2024-02-21T01:46:24;5.70;99.90
4002;DHT22;2015;48.670;9.060;2024-02-21T01:49:00;5.70;99.90
4002;DHT22;2015;48.670;9.060;2024-02-21T01:51:32;5.80;99.90
4002;DHT22;2015;48.670;9.060;2024-02-21T01:54:05;5.80;99.90
4002;DHT22;2015;48.670;9.060;2024-02-21T01:56:37;5.70;99.90
4002;DHT22;2015;48.670;9.060;2024-02-21T01:59:09;5.80;99.90
4002;DHT22;2015;48.670;9.060;2024-02-21T02:01:41;5.70;99.90
4002;DHT22;2015;48.670;9.060;2024-02-21T02:04:13;5.70;99.90
4002;DHT22;2015;48.670;9.060;2024-02-21T02:06:45;5.70;99.90
4002;DHT22;2015;48.670;9.060;2024-02-21T02:09:17;5.70;99.90
4002;DHT22;2015;48.670;9.060;2024-02-21T02:11:49;5.70;99.90
4002;DHT22;2015;48.670;9.060;2024-02-21T02:14:22;5.60;99.90
4002;DHT22;2015;48.670;9.060;2024-02-21T02:16:53;5.60;99.90
4002;DHT22;2015;48.670;9.060;2024-02-21T02:19:25;5.60;99.90
4002;DHT22;2015;48.670;9.060;2024-02-21T02:22:13;5.70;99.90
4002;DHT22;2015;48.670;9.060;2024-02-21T02:24:46;5.70;99.90
4002;DHT22;2015;48.670;9.060;2024-02-21T02:27:18;5.70;99.90
4002;DHT22;2015;48.670;9.060;2024-02-21T02:29:50;5.70;99.90
4002;DHT22;2015;48.670;9.060;2024-02-21T02:32:21;5.70;99.90
4002;DHT22;2015;48.670;9.060;2024-02-21T02:34:53;5.70;99.90
4002;DHT22;2015;48.670;9.060;2024-02-21T02:37:25;5.70;99.90
4002;DHT22;2015;48.670;9.060;2024-02-21T02:39:57;5.70;99.90
4002;DHT22;2015;48.670;9.060;2024-02-21T02:42:28;5.70;99.90
4002;DHT22;2015;48.670;9.060;2024-02-21T02:45:00;5.70;99.90
4002;DHT22;2015;48.670;9.060;2024-02-21T02:47:32;5.70;99.90
4002;DHT22;2015;48.670;9.060;2024-02-21T02:50:07;5.70;99.90
4002;DHT22;2015;48.670;9.060;2024-02-21T02:52:39;5.80;99.90
4002;DHT22;2015;48.670;9.060;2024-02-21T02:55:11;5.80;99.90
4002;DHT22;2015;48.670;9.060;2024-02-21T02:57:43;5.80;99.90
4002;DHT22;2015;48.670;9.060;2024-02-21T03:00:15;5.80;99.90
4002;DHT22;2015;48.670;9.060;2024-02-21T03:02:49;6.00;99.90
4002;DHT22;2015;48.670;9.060;2024-02-21T03:05:21;5.80;99.90
4002;DHT22;2015;48.670;9.060;2024-02-21T03:07:53;5.80;99.90
4002;DHT22;2015;48.670;9.060;2024-02-21T03:10:25;5.80;99.90
4002;DHT22;2015;48.670;9.060;2024-02-21T03:12:57;5.80;99.90
4002;DHT22;2015;48.670;9.060;2024-02-21T03:15:30;5.70;99.90
4002;DHT22;2015;48.670;9.060;2024-02-21T03:18:02;5.70;99.90
4002;DHT22;2015;48.670;9.060;2024-02-21T03:20:34;5.70;99.90
4002;DHT22;2015;48.670;9.060;2024-02-21T03:23:06;5.80;99.90
4002;DHT22;2015;48.670;9.060;2024-02-21T03:25:37;5.80;99.90
4002;DHT22;2015;48.670;9.060;2024-02-21T03:28:09;5.80;99.90
4002;DHT22;2015;48.670;9.060;2024-02-21T03:30:41;5.70;99.90
4002;DHT22;2015;48.670;9.060;2024-02-21T03:33:13;5.80;99.90
4002;DHT22;2015;48.670;9.060;2024-02-21T03:35:45;5.80;99.90
4002;DHT22;2015;48.670;9.060;2024-02-21T03:38:16;5.80;99.90
4002;DHT22;2015;48.670;9.060;2024-02-21T03:40:48;5.70;99.90
4002;DHT22;2015;48.670;9.060;2024-02-21T03:43:20;5.70;99.90
4002;DHT22;2015;48.670;9.060;2024-02-21T03:45:51;5.70;99.90
4002;DHT22;2015;48.670;9.060;2024-02-21T03:48:23;5.70;99.90
4002;DHT22;2015;48.670;9.060;2024-02-21T03:50:55;5.70;99.90
4002;DHT22;2015;48.670;9.060;2024-02-21T03:53:26;5.70;99.90
4002;DHT22;2015;48.670;9.060;2024-02-21T03:56:03;5.70;99.90
4002;DHT22;2015;48.670;9.060;2024-02-21T03:58:35;5.70;99.90
4002;DHT22;2015;48.670;9.060;2024-02-21T04:01:07;5.70;99.90
4002;DHT22;2015;48.670;9.060;2024-02-21T04:03:39;5.60;99.90
4002;DHT22;2015;48.670;9.060;2024-02-21T04:06:11;5.60;99.90
4002;DHT22;2015;48.670;9.060;2024-02-21T04:08:45;5.70;99.90
4002;DHT22;2015;48.670;9.060;2024-02-21T04:11:16;5.70;99.90
4002;DHT22;2015;48.670;9.060;2024-02-21T04:13:50;5.70;99.90
4002;DHT22;2015;48.670;9.060;2024-02-21T04:16:22;5.70;99.90
4002;DHT22;2015;48.670;9.060;2024-02-21T04:18:54;5.70;99.90
4002;DHT22;2015;48.670;9.060;2024-02-21T04:21:26;5.60;99.90
4002;DHT22;2015;48.670;9.060;2024-02-21T04:23:58;5.50;99.90
4002;DHT22;2015;48.670;9.060;2024-02-21T04:26:30;5.50;99.90
4002;DHT22;2015;48.670;9.060;2024-02-21T04:29:02;5.40;99.90
4002;DHT22;2015;48.670;9.060;2024-02-21T04:31:34;5.40;99.90
4002;DHT22;2015;48.670;9.060;2024-02-21T04:34:06;5.30;99.90
4002;DHT22;2015;48.670;9.060;2024-02-21T04:36:38;5.20;99.90
4002;DHT22;2015;48.670;9.060;2024-02-21T04:39:10;5.20;99.90
4002;DHT22;2015;48.670;9.060;2024-02-21T04:41:43;5.20;99.90
4002;DHT22;2015;48.670;9.060;2024-02-21T04:44:14;5.20;99.90
4002;DHT22;2015;48.670;9.060;2024-02-21T04:46:47;5.10;99.90
4002;DHT22;2015;48.670;9.060;2024-02-21T04:49:19;5.10;99.90
4002;DHT22;2015;48.670;9.060;2024-02-21T04:51:51;5.00;99.90
4002;DHT22;2015;48.670;9.060;2024-02-21T04:54:23;5.00;99.90
4002;DHT22;2015;48.670;9.060;2024-02-21T04:56:54;5.10;99.90
4002;DHT22;2015;48.670;9.060;2024-02-21T04:59:26;5.10;99.90
4002;DHT22;2015;48.670;9.060;2024-02-21T05:01:58;5.00;99.90
4002;DHT22;2015;48.670;9.060;2024-02-21T05:04:30;4.90;99.90
4002;DHT22;2015;48.670;9.060;2024-02-21T05:07:02;4.80;99.90
4002;DHT22;2015;48.670;9.060;2024-02-21T05:09:34;4.70;99.90
4002;DHT22;2015;48.670;9.060;2024-02-21T05:12:06;4.80;99.90
4002;DHT22;2015;48.670;9.060;2024-02-21T05:14:38;4.90;99.90
4002;DHT22;2015;48.670;9.060;2024-02-21T05:17:09;4.80;99.90
4002;DHT22;2015;48.670;9.060;2024-02-21T05:19:41;4.70;99.90
4002;DHT22;2015;48.670;9.060;2024-02-21T05:22:13;4.60;99.90
4002;DHT22;2015;48.670;9.060;2024-02-21T05:24:45;4.60;99.90
4002;DHT22;2015;48.670;9.060;2024-02-21T05:27:17;4.60;99.90
4002;DHT22;2015;48.670;9.060;2024-02-21T05:29:49;4.60;99.90
4002;DHT22;2015;48.670;9.060;2024-02-21T05:32:20;4.70;99.90
4002;DHT22;2015;48.670;9.060;2024-02-21T05:34:52;4.70;99.90
4002;DHT22;2015;48.670;9.060;2024-02-21T05:37:24;4.70;99.90
4002;DHT22;2015;48.670;9.060;2024-02-21T05:39:56;4.70;99.90
4002;DHT22;2015;48.670;9.060;2024-02-21T05:42:27;4.60;99.90
4002;DHT22;2015;48.670;9.060;2024-02-21T05:44:59;4.50;99.90
4002;DHT22;2015;48.670;9.060;2024-02-21T05:47:31;4.40;99.90
4002;DHT22;2015;48.670;9.060;2024-02-21T05:50:03;4.50;99.90
4002;DHT22;2015;48.670;9.060;2024-02-21T05:52:35;4.60;99.90
4002;DHT22;2015;48.670;9.060;2024-02-21T05:55:08;4.60;99.90
4002;DHT22;2015;48.670;9.060;2024-02-21T05:57:40;4.60;99.90
4002;DHT22;2015;48.670;9.060;2024-02-21T06:00:14;4.60;99.90
4002;DHT22;2015;48.670;9.060;2024-02-21T06:02:46;4.60;99.90
4002;DHT22;2015;48.670;9.060;2024-02-21T06:05:18;4.70;99.90
4002;DHT22;2015;48.670;9.060;2024-02-21T06:07:50;4.70;99.90
4002;DHT22;2015;48.670;9.060;2024-02-21T06:10:22;4.70;99.90
4002;DHT22;2015;48.670;9.060;2024-02-21T06:12:54;4.60;99.90
4002;DHT22;2015;48.670;9.060;2024-02-21T06:15:25;4.50;99.90
4002;DHT22;2015;48.670;9.060;2024-02-21T06:17:57;4.50;99.90
4002;DHT22;2015;48.670;9.060;2024-02-21T06:20:29;4.50;99.90
4002;DHT22;2015;48.670;9.060;2024-02-21T06:23:01;4.50;99.90
4002;DHT22;2015;48.670;9.060;2024-02-21T06:25:33;4.50;99.90
4002;DHT22;2015;48.670;9.060;2024-02-21T06:28:05;4.40;99.90
4002;DHT22;2015;48.670;9.060;2024-02-21T06:30:37;4.30;99.90
4002;DHT22;2015;48.670;9.060;2024-02-21T06:33:09;4.20;99.90
4002;DHT22;2015;48.670;9.060;2024-02-21T06:35:41;4.20;99.90
4002;DHT22;2015;48.670;9.060;2024-02-21T06:38:14;4.10;99.90
4002;DHT22;2015;48.670;9.060;2024-02-21T06:40:48;4.10;99.90
4002;DHT22;2015;48.670;9.060;2024-02-21T06:43:23;4.00;99.90
4002;DHT22;2015;48.670;9.060;2024-02-21T06:45:55;4.00;99.90
4002;DHT22;2015;48.670;9.060;2024-02-21T06:48:28;4.00;99.90
4002;DHT22;2015;48.670;9.060;2024-02-21T06:51:00;4.20;99.90
4002;DHT22;2015;48.670;9.060;2024-02-21T06:53:31;4.40;99.90
4002;DHT22;2015;48.670;9.060;2024-02-21T06:56:04;4.60;99.90
4002;DHT22;2015;48.670;9.060;2024-02-21T06:58:36;4.70;99.90
4002;DHT22;2015;48.670;9.060;2024-02-21T07:01:08;4.80;99.90
4002;DHT22;2015;48.670;9.060;2024-02-21T07:03:40;4.90;99.90
4002;DHT22;2015;48.670;9.060;2024-02-21T07:06:12;5.00;99.90
4002;DHT22;2015;48.670;9.060;2024-02-21T07:08:44;5.10;99.90
4002;DHT22;2015;48.670;9.060;2024-02-21T07:11:16;5.10;99.90
4002;DHT22;2015;48.670;9.060;2024-02-21T07:13:47;5.20;99.90
4002;DHT22;2015;48.670;9.060;2024-02-21T07:16:19;5.20;99.90
4002;DHT22;2015;48.670;9.060;2024-02-21T07:18:51;5.30;99.90
4002;DHT22;2015;48.670;9.060;2024-02-21T07:21:23;5.30;99.90
4002;DHT22;2015;48.670;9.060;2024-02-21T07:23:54;5.30;99.90
4002;DHT22;2015;48.670;9.060;2024-02-21T07:26:26;5.30;99.90
4002;DHT22;2015;48.670;9.060;2024-02-21T07:28:58;5.40;99.90
4002;DHT22;2015;48.670;9.060;2024-02-21T07:31:30;5.40;99.90
4002;DHT22;2015;48.670;9.060;2024-02-21T07:34:01;5.50;99.90
4002;DHT22;2015;48.670;9.060;2024-02-21T07:36:33;5.60;99.90
4002;DHT22;2015;48.670;9.060;2024-02-21T07:39:05;5.70;99.90
4002;DHT22;2015;48.670;9.060;2024-02-21T07:41:37;5.70;99.90
4002;DHT22;2015;48.670;9.060;2024-02-21T07:44:10;5.80;99.90
4002;DHT22;2015;48.670;9.060;2024-02-21T07:46:42;5.90;99.90
4002;DHT22;2015;48.670;9.060;2024-02-21T07:49:14;5.90;99.90
4002;DHT22;2015;48.670;9.060;2024-02-21T07:51:46;6.00;99.90
4002;DHT22;2015;48.670;9.060;2024-02-21T07:54:17;6.00;99.90
4002;DHT22;2015;48.670;9.060;2024-02-21T07:56:51;6.10;99.90
4002;DHT22;2015;48.670;9.060;2024-02-21T07:59:23;6.10;99.90
4002;DHT22;2015;48.670;9.060;2024-02-21T08:01:59;6.20;99.90
4002;DHT22;2015;48.670;9.060;2024-02-21T08:04:31;6.30;99.90
4002;DHT22;2015;48.670;9.060;2024-02-21T08:07:03;6.40;99.90
4002;DHT22;2015;48.670;9.060;2024-02-21T08:09:35;6.40;99.90
4002;DHT22;2015;48.670;9.060;2024-02-21T08:12:09;6.50;99.90
4002;DHT22;2015;48.670;9.060;2024-02-21T08:14:41;6.60;99.90
4002;DHT22;2015;48.670;9.060;2024-02-21T08:17:12;6.70;99.90
4002;DHT22;2015;48.670;9.060;2024-02-21T08:19:44;6.70;99.90
4002;DHT22;2015;48.670;9.060;2024-02-21T08:22:16;6.80;99.90
4002;DHT22;2015;48.670;9.060;2024-02-21T08:24:48;6.80;99.90
4002;DHT22;2015;48.670;9.060;2024-02-21T08:27:19;6.90;99.90
4002;DHT22;2015;48.670;9.060;2024-02-21T08:29:51;7.00;99.90
4002;DHT22;2015;48.670;9.060;2024-02-21T08:32:23;7.10;99.90
4002;DHT22;2015;48.670;9.060;2024-02-21T08:34:55;7.10;99.90
4002;DHT22;2015;48.670;9.060;2024-02-21T08:37:27;7.20;99.90
4002;DHT22;2015;48.670;9.060;2024-02-21T08:39:59;7.30;99.90
4002;DHT22;2015;48.670;9.060;2024-02-21T08:42:38;7.40;99.90
4002;DHT22;2015;48.670;9.060;2024-02-21T08:45:10;7.50;99.90
4002;DHT22;2015;48.670;9.060;2024-02-21T08:47:42;7.50;99.90
4002;DHT22;2015;48.670;9.060;2024-02-21T08:50:13;7.50;99.90
4002;DHT22;2015;48.670;9.060;2024-02-21T08:52:58;7.60;99.90
4002;DHT22;2015;48.670;9.060;2024-02-21T08:55:30;7.60;99.90
4002;DHT22;2015;48.670;9.060;2024-02-21T08:58:02;7.60;99.90
4002;DHT22;2015;48.670;9.060;2024-02-21T09:00:35;7.50;99.90
4002;DHT22;2015;48.670;9.060;2024-02-21T09:03:07;7.50;99.90
4002;DHT22;2015;48.670;9.060;2024-02-21T09:05:39;7.50;99.90
4002;DHT22;2015;48.670;9.060;2024-02-21T09:08:10;7.70;99.90
4002;DHT22;2015;48.670;9.060;2024-02-21T09:10:42;7.70;99.90
4002;DHT22;2015;48.670;9.060;2024-02-21T09:13:14;7.70;99.90
4002;DHT22;2015;48.670;9.060;2024-02-21T09:15:47;7.80;99.90
4002;DHT22;2015;48.670;9.060;2024-02-21T09:18:20;7.80;99.90
4002;DHT22;2015;48.670;9.060;2024-02-21T09:20:51;7.90;99.90
4002;DHT22;2015;48.670;9.060;2024-02-21T09:23:26;8.00;99.90
4002;DHT22;2015;48.670;9.060;2024-02-21T09:25:58;8.10;99.90
4002;DHT22;2015;48.670;9.060;2024-02-21T09:28:32;8.10;99.90
4002;DHT22;2015;48.670;9.060;2024-02-21T09:31:06;8.20;99.90
4002;DHT22;2015;48.670;9.060;2024-02-21T09:33:37;8.20;99.90
4002;DHT22;2015;48.670;9.060;2024-02-21T09:36:09;8.30;99.90
4002;DHT22;2015;48.670;9.060;2024-02-21T09:38:41;8.40;99.90
4002;DHT22;2015;48.670;9.060;2024-02-21T09:41:18;8.60;99.90
4002;DHT22;2015;48.670;9.060;2024-02-21T09:43:56;8.60;99.90
4002;DHT22;2015;48.670;9.060;2024-02-21T09:46:52;8.70;99.90
4002;DHT22;2015;48.670;9.060;2024-02-21T09:49:33;9.10;99.90
4002;DHT22;2015;48.670;9.060;2024-02-21T09:52:06;9.30;99.90
4002;DHT22;2015;48.670;9.060;2024-02-21T09:54:38;9.40;99.90
4002;DHT22;2015;48.670;9.060;2024-02-21T09:57:11;9.30;99.90
4002;DHT22;2015;48.670;9.060;2024-02-21T09:59:43;9.20;99.90
4002;DHT22;2015;48.670;9.060;2024-02-21T10:02:17;9.40;99.90
4002;DHT22;2015;48.670;9.060;2024-02-21T10:04:49;9.80;99.90
4002;DHT22;2015;48.670;9.060;2024-02-21T10:07:21;10.50;99.90
4002;DHT22;2015;48.670;9.060;2024-02-21T10:10:05;11.10;99.90
4002;DHT22;2015;48.670;9.060;2024-02-21T10:12:50;11.70;99.90
4002;DHT22;2015;48.670;9.060;2024-02-21T10:15:23;12.10;99.90
4002;DHT22;2015;48.670;9.060;2024-02-21T10:17:59;12.00;99.90
4002;DHT22;2015;48.670;9.060;2024-02-21T10:20:32;12.00;99.90
4002;DHT22;2015;48.670;9.060;2024-02-21T10:23:05;11.70;99.90
4002;DHT22;2015;48.670;9.060;2024-02-21T10:25:40;11.60;99.90
4002;DHT22;2015;48.670;9.060;2024-02-21T10:28:17;11.30;99.90
4002;DHT22;2015;48.670;9.060;2024-02-21T10:30:54;11.00;99.90
4002;DHT22;2015;48.670;9.060;2024-02-21T10:33:26;11.10;99.90
4002;DHT22;2015;48.670;9.060;2024-02-21T10:36:10;11.30;99.90
4002;DHT22;2015;48.670;9.060;2024-02-21T10:38:42;11.70;99.90
4002;DHT22;2015;48.670;9.060;2024-02-21T10:41:14;11.90;99.90
4002;DHT22;2015;48.670;9.060;2024-02-21T10:43:54;11.90;99.90
4002;DHT22;2015;48.670;9.060;2024-02-21T10:46:28;11.90;99.90
4002;DHT22;2015;48.670;9.060;2024-02-21T10:49:12;12.10;99.90
4002;DHT22;2015;48.670;9.060;2024-02-21T10:51:45;12.00;99.90
4002;DHT22;2015;48.670;9.060;2024-02-21T10:54:42;11.80;99.90
4002;DHT22;2015;48.670;9.060;2024-02-21T10:57:15;11.40;99.90
4002;DHT22;2015;48.670;9.060;2024-02-21T10:59:48;11.40;99.90
4002;DHT22;2015;48.670;9.060;2024-02-21T11:02:20;11.40;99.90
4002;DHT22;2015;48.670;9.060;2024-02-21T11:04:53;11.70;99.90
4002;DHT22;2015;48.670;9.060;2024-02-21T11:07:26;11.70;99.90
4002;DHT22;2015;48.670;9.060;2024-02-21T11:09:58;11.60;99.90
4002;DHT22;2015;48.670;9.060;2024-02-21T11:12:33;11.60;99.90
4002;DHT22;2015;48.670;9.060;2024-02-21T11:15:06;11.60;99.90
4002;DHT22;2015;48.670;9.060;2024-02-21T11:17:38;11.70;99.90
4002;DHT22;2015;48.670;9.060;2024-02-21T11:20:21;11.80;99.90
4002;DHT22;2015;48.670;9.060;2024-02-21T11:23:03;11.70;99.90
4002;DHT22;2015;48.670;9.060;2024-02-21T11:25:35;11.60;99.90
4002;DHT22;2015;48.670;9.060;2024-02-21T11:28:07;11.50;99.90
4002;DHT22;2015;48.670;9.060;2024-02-21T11:30:39;11.50;99.90
4002;DHT22;2015;48.670;9.060;2024-02-21T11:33:12;11.50;99.90
4002;DHT22;2015;48.670;9.060;2024-02-21T11:35:44;11.60;99.90
4002;DHT22;2015;48.670;9.060;2024-02-21T11:38:15;11.60;99.90
4002;DHT22;2015;48.670;9.060;2024-02-21T11:40:48;11.60;99.90
4002;DHT22;2015;48.670;9.060;2024-02-21T11:43:20;11.50;99.90
4002;DHT22;2015;48.670;9.060;2024-02-21T11:46:01;11.60;99.90
4002;DHT22;2015;48.670;9.060;2024-02-21T11:48:35;11.50;99.90
4002;DHT22;2015;48.670;9.060;2024-02-21T11:51:06;11.40;99.90
4002;DHT22;2015;48.670;9.060;2024-02-21T11:53:38;11.30;99.90
4002;DHT22;2015;48.670;9.060;2024-02-21T11:56:21;11.30;99.90
4002;DHT22;2015;48.670;9.060;2024-02-21T11:58:54;11.30;99.90
4002;DHT22;2015;48.670;9.060;2024-02-21T12:01:26;11.20;99.90
4002;DHT22;2015;48.670;9.060;2024-02-21T12:03:58;11.30;99.90
4002;DHT22;2015;48.670;9.060;2024-02-21T12:06:30;11.30;99.90
4002;DHT22;2015;48.670;9.060;2024-02-21T12:09:04;11.30;99.90
4002;DHT22;2015;48.670;9.060;2024-02-21T12:11:35;11.40;99.90
4002;DHT22;2015;48.670;9.060;2024-02-21T12:14:07;11.40;99.90
4002;DHT22;2015;48.670;9.060;2024-02-21T12:16:40;11.40;99.90
4002;DHT22;2015;48.670;9.060;2024-02-21T12:19:13;11.60;99.90
4002;DHT22;2015;48.670;9.060;2024-02-21T12:21:48;11.70;99.90
4002;DHT22;2015;48.670;9.060;2024-02-21T12:24:24;11.70;99.90
4002;DHT22;2015;48.670;9.060;2024-02-21T12:26:56;11.80;99.90
4002;DHT22;2015;48.670;9.060;2024-02-21T12:29:30;11.80;99.90
4002;DHT22;2015;48.670;9.060;2024-02-21T12:32:02;11.80;99.90
4002;DHT22;2015;48.670;9.060;2024-02-21T12:34:35;11.90;99.90
4002;DHT22;2015;48.670;9.060;2024-02-21T12:37:24;11.90;99.90
4002;DHT22;2015;48.670;9.060;2024-02-21T12:39:56;11.80;99.90
4002;DHT22;2015;48.670;9.060;2024-02-21T12:42:27;11.70;99.90
4002;DHT22;2015;48.670;9.060;2024-02-21T12:45:01;11.70;99.90
4002;DHT22;2015;48.670;9.060;2024-02-21T12:47:34;11.80;99.90
4002;DHT22;2015;48.670;9.060;2024-02-21T12:50:06;11.90;99.90
4002;DHT22;2015;48.670;9.060;2024-02-21T12:52:39;12.00;99.90
4002;DHT22;2015;48.670;9.060;2024-02-21T12:55:11;12.00;99.90
4002;DHT22;2015;48.670;9.060;2024-02-21T12:57:44;11.90;99.90
4002;DHT22;2015;48.670;9.060;2024-02-21T13:00:16;11.90;99.90
4002;DHT22;2015;48.670;9.060;2024-02-21T13:02:48;12.00;99.90
4002;DHT22;2015;48.670;9.060;2024-02-21T13:05:20;12.10;99.90
4002;DHT22;2015;48.670;9.060;2024-02-21T13:07:52;12.10;99.90
4002;DHT22;2015;48.670;9.060;2024-02-21T13:10:24;12.20;99.90
4002;DHT22;2015;48.670;9.060;2024-02-21T13:12:57;12.20;99.90
4002;DHT22;2015;48.670;9.060;2024-02-21T13:15:29;12.20;99.90
4002;DHT22;2015;48.670;9.060;2024-02-21T13:18:00;12.10;99.90
4002;DHT22;2015;48.670;9.060;2024-02-21T13:20:32;12.00;99.90
4002;DHT22;2015;48.670;9.060;2024-02-21T13:23:04;12.00;99.90
4002;DHT22;2015;48.670;9.060;2024-02-21T13:25:36;12.00;99.90
4002;DHT22;2015;48.670;9.060;2024-02-21T13:28:08;11.90;99.90
4002;DHT22;2015;48.670;9.060;2024-02-21T13:30:41;11.90;99.90
4002;DHT22;2015;48.670;9.060;2024-02-21T13:33:13;11.90;99.90
4002;DHT22;2015;48.670;9.060;2024-02-21T13:35:45;12.00;99.90
4002;DHT22;2015;48.670;9.060;2024-02-21T13:38:17;12.10;99.90
4002;DHT22;2015;48.670;9.060;2024-02-21T13:40:50;12.00;99.90
4002;DHT22;2015;48.670;9.060;2024-02-21T13:43:22;12.00;99.90
4002;DHT22;2015;48.670;9.060;2024-02-21T13:45:59;12.00;99.90
4002;DHT22;2015;48.670;9.060;2024-02-21T13:48:31;12.10;99.90
4002;DHT22;2015;48.670;9.060;2024-02-21T13:51:05;12.00;99.90
4002;DHT22;2015;48.670;9.060;2024-02-21T13:53:37;12.00;99.90
4002;DHT22;2015;48.670;9.060;2024-02-21T13:56:08;12.00;99.90
4002;DHT22;2015;48.670;9.060;2024-02-21T13:58:41;11.90;99.90
4002;DHT22;2015;48.670;9.060;2024-02-21T14:01:12;11.90;99.90
4002;DHT22;2015;48.670;9.060;2024-02-21T14:03:44;11.90;99.90
4002;DHT22;2015;48.670;9.060;2024-02-21T14:06:16;11.90;99.90
4002;DHT22;2015;48.670;9.060;2024-02-21T14:08:48;11.90;99.90
4002;DHT22;2015;48.670;9.060;2024-02-21T14:11:20;11.90;99.90
4002;DHT22;2015;48.670;9.060;2024-02-21T14:13:52;11.90;99.90
4002;DHT22;2015;48.670;9.060;2024-02-21T14:16:24;12.00;99.90
4002;DHT22;2015;48.670;9.060;2024-02-21T14:18:56;12.00;99.90
4002;DHT22;2015;48.670;9.060;2024-02-21T14:21:28;12.00;99.90
4002;DHT22;2015;48.670;9.060;2024-02-21T14:24:00;12.10;99.90
4002;DHT22;2015;48.670;9.060;2024-02-21T14:26:34;12.10;99.90
4002;DHT22;2015;48.670;9.060;2024-02-21T14:29:07;12.10;99.90
4002;DHT22;2015;48.670;9.060;2024-02-21T14:31:39;12.00;99.90
4002;DHT22;2015;48.670;9.060;2024-02-21T14:34:11;12.10;99.90
4002;DHT22;2015;48.670;9.060;2024-02-21T14:36:43;12.00;99.90
4002;DHT22;2015;48.670;9.060;2024-02-21T14:39:15;12.00;99.90
4002;DHT22;2015;48.670;9.060;2024-02-21T14:41:46;12.10;99.90
4002;DHT22;2015;48.670;9.060;2024-02-21T14:44:18;12.10;99.90
4002;DHT22;2015;48.670;9.060;2024-02-21T14:46:50;12.00;99.90
4002;DHT22;2015;48.670;9.060;2024-02-21T14:49:22;12.00;99.90
4002;DHT22;2015;48.670;9.060;2024-02-21T14:51:54;12.00;99.90
4002;DHT22;2015;48.670;9.060;2024-02-21T14:54:26;12.10;99.90
4002;DHT22;2015;48.670;9.060;2024-02-21T14:56:57;12.00;99.90
4002;DHT22;2015;48.670;9.060;2024-02-21T14:59:29;12.00;99.90
4002;DHT22;2015;48.670;9.060;2024-02-21T15:02:05;11.90;99.90
4002;DHT22;2015;48.670;9.060;2024-02-21T15:04:39;11.80;99.90
4002;DHT22;2015;48.670;9.060;2024-02-21T15:07:11;11.80;99.90
4002;DHT22;2015;48.670;9.060;2024-02-21T15:09:42;11.70;99.90
4002;DHT22;2015;48.670;9.060;2024-02-21T15:12:14;11.70;99.90
4002;DHT22;2015;48.670;9.060;2024-02-21T15:14:46;11.70;99.90
4002;DHT22;2015;48.670;9.060;2024-02-21T15:17:18;11.60;99.90
4002;DHT22;2015;48.670;9.060;2024-02-21T15:19:50;11.60;99.90
4002;DHT22;2015;48.670;9.060;2024-02-21T15:22:22;11.60;99.90
4002;DHT22;2015;48.670;9.060;2024-02-21T15:24:54;11.60;99.90
4002;DHT22;2015;48.670;9.060;2024-02-21T15:27:26;11.70;99.90
4002;DHT22;2015;48.670;9.060;2024-02-21T15:30:01;11.70;99.90
4002;DHT22;2015;48.670;9.060;2024-02-21T15:32:33;11.60;99.90
4002;DHT22;2015;48.670;9.060;2024-02-21T15:35:05;11.70;99.90
4002;DHT22;2015;48.670;9.060;2024-02-21T15:37:38;11.60;99.90
4002;DHT22;2015;48.670;9.060;2024-02-21T15:40:10;11.60;99.90
4002;DHT22;2015;48.670;9.060;2024-02-21T15:42:42;11.60;99.90
4002;DHT22;2015;48.670;9.060;2024-02-21T15:45:13;11.60;99.90
4002;DHT22;2015;48.670;9.060;2024-02-21T15:47:45;11.50;99.90
4002;DHT22;2015;48.670;9.060;2024-02-21T15:50:17;11.50;99.90
4002;DHT22;2015;48.670;9.060;2024-02-21T15:52:51;11.50;99.90
4002;DHT22;2015;48.670;9.060;2024-02-21T15:55:22;11.40;99.90
4002;DHT22;2015;48.670;9.060;2024-02-21T15:57:54;11.40;99.90
4002;DHT22;2015;48.670;9.060;2024-02-21T16:00:26;11.40;99.90
4002;DHT22;2015;48.670;9.060;2024-02-21T16:02:58;11.40;99.90
4002;DHT22;2015;48.670;9.060;2024-02-21T16:05:29;11.40;99.90
4002;DHT22;2015;48.670;9.060;2024-02-21T16:08:01;11.40;99.90
4002;DHT22;2015;48.670;9.060;2024-02-21T16:10:33;11.30;99.90
4002;DHT22;2015;48.670;9.060;2024-02-21T16:13:05;11.20;99.90
4002;DHT22;2015;48.670;9.060;2024-02-21T16:15:37;11.30;99.90
4002;DHT22;2015;48.670;9.060;2024-02-21T16:18:09;11.20;99.90
4002;DHT22;2015;48.670;9.060;2024-02-21T16:20:41;11.20;99.90
4002;DHT22;2015;48.670;9.060;2024-02-21T16:23:14;11.10;99.90
4002;DHT22;2015;48.670;9.060;2024-02-21T16:25:45;11.00;99.90
4002;DHT22;2015;48.670;9.060;2024-02-21T16:28:19;10.90;99.90
4002;DHT22;2015;48.670;9.060;2024-02-21T16:30:51;10.80;99.90
4002;DHT22;2015;48.670;9.060;2024-02-21T16:33:23;10.70;99.90
4002;DHT22;2015;48.670;9.060;2024-02-21T16:35:56;10.60;99.90
4002;DHT22;2015;48.670;9.060;2024-02-21T16:38:28;10.50;99.90
4002;DHT22;2015;48.670;9.060;2024-02-21T16:41:00;10.40;99.90
4002;DHT22;2015;48.670;9.060;2024-02-21T16:43:32;10.30;99.90
4002;DHT22;2015;48.670;9.060;2024-02-21T16:46:04;10.20;99.90
4002;DHT22;2015;48.670;9.060;2024-02-21T16:48:36;10.10;99.90